Time;durP1;ratioP1;P1;durP2;ratioP2;P2;SDS_P1;SDS_P2;PMS_P1;PMS_P2;Temp;Humidity;BMP_temperature;BMP_pressure;BME280_temperature;BME280_humidity;BME280_pressure;Samples;Min_cycle;Max_cycle;Signal;HPM_P1;HPM_P2
2023/06/05 00:00:37;;;;;;;0.80;0.40;;;;;;;8.90;100.00;100413.62;105332;1254;61388;-42
2023/06/05 00:03:05;;;;;;;6.60;0.60;;;;;;;8.88;100.00;100414.40;105292;1259;60578;-45
2023/06/05 00:05:32;;;;;;;4.40;0.50;;;;;;;8.88;100.00;100416.00;107106;1254;73797;-47
2023/06/05 00:08:00;;;;;;;5.30;0.60;;;;;;;8.90;100.00;100411.29;105329;1256;67895;-44
2023/06/05 00:10:27;;;;;;;6.50;0.50;;;;;;;8.95;100.00;100410.95;105254;1257;70723;-44
2023/06/05 00:12:55;;;;;;;8.70;0.60;;;;;;;9.00;100.00;100410.98;105190;1254;61995;-44
2023/06/05 00:15:22;;;;;;;4.90;0.60;;;;;;;9.05;100.00;100411.52;105698;1254;60415;-45
2023/06/05 00:17:50;;;;;;;5.90;0.80;;;;;;;9.09;100.00;100411.42;105443;1259;73858;-44
2023/06/05 00:20:17;;;;;;;4.60;0.80;;;;;;;9.14;100.00;100409.84;105322;1260;66861;-48
2023/06/05 00:22:47;;;;;;;7.60;0.70;;;;;;;9.17;100.00;100409.93;105357;1255;71973;-45
2023/06/05 00:25:14;;;;;;;1.50;0.70;;;;;;;9.18;100.00;100411.86;105372;1254;60621;-42
2023/06/05 00:27:42;;;;;;;2.40;0.50;;;;;;;9.19;100.00;100413.23;105785;1257;60501;-43
2023/06/05 00:30:10;;;;;;;4.90;0.50;;;;;;;9.18;100.00;100410.77;105392;1260;72798;-47
2023/06/05 00:32:37;;;;;;;5.20;0.30;;;;;;;9.15;100.00;100411.77;105366;1254;66515;-45
2023/06/05 00:35:06;;;;;;;1.10;0.30;;;;;;;9.09;100.00;100410.14;105315;1254;72938;-45
2023/06/05 00:37:33;;;;;;;1.10;0.40;;;;;;;9.04;100.00;100413.19;105401;1256;61977;-44
2023/06/05 00:40:01;;;;;;;4.80;0.40;;;;;;;8.96;100.00;100417.90;105412;1254;60535;-43
2023/06/05 00:42:29;;;;;;;2.90;0.50;;;;;;;8.90;100.00;100413.98;105362;1257;74376;-44
2023/06/05 00:44:56;;;;;;;2.20;0.30;;;;;;;8.88;100.00;100410.80;105312;1257;66839;-42
2023/06/05 00:47:24;;;;;;;5.20;0.70;;;;;;;8.88;100.00;100413.69;105291;1254;73434;-42
2023/06/05 00:49:51;;;;;;;4.70;0.40;;;;;;;8.88;100.00;100412.98;108813;1254;59444;-44
2023/06/05 00:52:19;;;;;;;3.30;0.80;;;;;;;8.87;100.00;100411.92;108979;1259;59226;-44
2023/06/05 00:54:46;;;;;;;3.90;0.40;;;;;;;8.86;100.00;100410.88;109018;1253;74407;-45
2023/06/05 00:57:15;;;;;;;2.00;0.30;;;;;;;8.85;100.00;100408.40;106094;1259;69004;-45
2023/06/05 00:59:44;;;;;;;1.30;0.40;;;;;;;8.86;100.00;100410.52;105367;1260;72999;-42
2023/06/05 01:02:16;;;;;;;1.30;0.30;;;;;;;8.87;100.00;100407.98;109086;1253;60176;-46
2023/06/05 01:04:43;;;;;;;1.00;0.20;;;;;;;8.87;100.00;100406.90;109094;1254;59815;-44
2023/06/05 01:07:11;;;;;;;0.60;0.30;;;;;;;8.86;100.00;100406.95;108875;1253;72493;-45
2023/06/05 01:09:38;;;;;;;1.40;0.20;;;;;;;8.82;100.00;100407.98;108987;1254;65900;-45
2023/06/05 01:12:17;;;;;;;0.40;0.20;;;;;;;8.77;100.00;100409.20;107214;1254;72160;-43
2023/06/05 01:14:45;;;;;;;2.50;0.20;;;;;;;8.71;100.00;100410.98;105464;1254;63006;-45
2023/06/05 01:17:13;;;;;;;0.70;0.20;;;;;;;8.68;100.00;100410.88;108838;1253;59709;-47
2023/06/05 01:19:42;;;;;;;2.60;0.20;;;;;;;8.69;100.00;100410.70;108972;1254;72863;-45
2023/06/05 01:22:09;;;;;;;0.60;0.20;;;;;;;8.69;100.00;100411.75;108913;1254;67402;-45
2023/06/05 01:24:40;;;;;;;0.30;0.20;;;;;;;8.69;100.00;100412.28;108952;1254;73106;-44
2023/06/05 01:27:18;;;;;;;0.50;0.20;;;;;;;8.69;100.00;100411.38;109093;1253;59254;-44
2023/06/05 01:30:09;;;;;;;1.00;0.40;;;;;;;8.68;100.00;100413.23;109047;1254;60048;-45
2023/06/05 01:32:40;;;;;;;0.80;0.20;;;;;;;8.64;100.00;100410.67;108159;1254;73342;-43
2023/06/05 01:35:09;;;;;;;1.50;0.20;;;;;;;8.58;100.00;100411.75;109187;1253;67572;-48
2023/06/05 01:37:40;;;;;;;0.30;0.20;;;;;;;8.52;100.00;100409.06;107785;1256;73198;-42
2023/06/05 01:40:11;;;;;;;1.60;0.30;;;;;;;8.45;100.00;100413.02;105972;1255;60533;-43
2023/06/05 01:42:39;;;;;;;2.20;0.20;;;;;;;8.41;100.00;100407.23;105420;1259;60595;-46
2023/06/05 01:45:07;;;;;;;1.00;0.20;;;;;;;8.41;100.00;100414.77;105398;1254;72988;-43
2023/06/05 01:47:35;;;;;;;3.60;0.20;;;;;;;8.38;100.00;100411.42;105819;1258;65900;-43
2023/06/05 01:50:03;;;;;;;0.30;0.20;;;;;;;8.34;100.00;100413.85;106162;1260;72236;-43
2023/06/05 01:52:30;;;;;;;3.50;0.30;;;;;;;8.31;100.00;100418.05;106408;1254;62163;-45
2023/06/05 01:55:01;;;;;;;0.40;0.20;;;;;;;8.27;100.00;100416.70;105406;1254;62056;-44
2023/06/05 01:57:29;;;;;;;0.30;0.20;;;;;;;8.24;100.00;100416.27;105588;1254;73949;-44
2023/06/05 01:59:57;;;;;;;0.40;0.20;;;;;;;8.21;100.00;100420.11;105320;1260;66871;-43
2023/06/05 02:02:25;;;;;;;0.40;0.20;;;;;;;8.21;100.00;100420.29;105307;1260;72053;-45
2023/06/05 02:04:53;;;;;;;0.30;0.20;;;;;;;8.21;100.00;100421.91;105277;1255;61084;-45
2023/06/05 02:07:22;;;;;;;0.50;0.20;;;;;;;8.18;100.00;100423.05;105479;1256;60463;-46
2023/06/05 02:09:49;;;;;;;0.40;0.20;;;;;;;8.17;100.00;100423.80;105371;1256;73651;-45
2023/06/05 02:12:17;;;;;;;0.50;0.20;;;;;;;8.17;100.00;100419.86;105637;1254;66326;-46
2023/06/05 02:14:44;;;;;;;1.20;0.20;;;;;;;8.18;100.00;100425.02;105381;1259;72693;-47
2023/06/05 02:17:13;;;;;;;0.30;0.20;;;;;;;8.17;100.00;100425.91;105368;1255;61480;-45
2023/06/05 02:19:40;;;;;;;0.30;0.20;;;;;;;8.18;100.00;100426.80;105454;1254;60434;-43
2023/06/05 02:22:08;;;;;;;0.30;0.20;;;;;;;8.18;100.00;100429.66;105478;1254;72931;-46
2023/06/05 02:24:36;;;;;;;1.30;0.20;;;;;;;8.19;100.00;100429.29;105634;1254;71079;-46
2023/06/05 02:27:03;;;;;;;0.50;0.20;;;;;;;8.22;100.00;100429.20;105536;1259;72645;-45
2023/06/05 02:29:32;;;;;;;1.20;0.20;;;;;;;8.24;100.00;100434.34;106036;1254;60498;-46
2023/06/05 02:32:00;;;;;;;0.80;0.30;;;;;;;8.26;100.00;100433.00;106002;1254;60450;-47
2023/06/05 02:34:28;;;;;;;1.30;0.20;;;;;;;8.29;100.00;100431.69;105358;1254;73274;-45
2023/06/05 02:36:55;;;;;;;0.40;0.20;;;;;;;8.32;100.00;100432.17;105387;1254;68060;-44
2023/06/05 02:39:23;;;;;;;0.20;0.20;;;;;;;8.35;100.00;100436.00;105412;1254;72359;-43
2023/06/05 02:41:50;;;;;;;0.40;0.20;;;;;;;8.39;100.00;100437.16;105474;1254;60585;-46
2023/06/05 02:44:17;;;;;;;0.40;0.20;;;;;;;8.42;100.00;100435.30;105429;1254;60317;-45
2023/06/05 02:46:45;;;;;;;0.70;0.20;;;;;;;8.43;100.00;100434.17;105394;1258;73679;-46
2023/06/05 02:49:13;;;;;;;1.00;0.20;;;;;;;8.43;100.00;100432.02;105506;1254;68242;-45
2023/06/05 02:51:40;;;;;;;1.90;0.20;;;;;;;8.45;100.00;100433.75;105495;1258;74041;-45
2023/06/05 02:54:08;;;;;;;0.40;0.20;;;;;;;8.49;100.00;100434.18;105521;1259;62450;-45
2023/06/05 02:56:38;;;;;;;0.30;0.10;;;;;;;8.56;100.00;100432.56;105508;1254;61058;-47
2023/06/05 02:59:09;;;;;;;0.60;0.20;;;;;;;8.64;100.00;100430.54;105353;1254;72810;-45
2023/06/05 03:01:38;;;;;;;0.30;0.20;;;;;;;8.69;100.00;100429.81;106008;1254;68177;-47
2023/06/05 03:04:07;;;;;;;0.60;0.20;;;;;;;8.77;100.00;100430.31;105762;1254;72310;-44
2023/06/05 03:06:35;;;;;;;0.30;0.20;;;;;;;8.83;100.00;100429.41;105478;1259;60482;-46
2023/06/05 03:09:06;;;;;;;0.70;0.20;;;;;;;8.88;100.00;100426.21;105559;1254;60435;-46
2023/06/05 03:11:34;;;;;;;2.10;0.20;;;;;;;8.92;100.00;100426.63;105788;1254;72241;-46
2023/06/05 03:14:02;;;;;;;0.40;0.30;;;;;;;8.95;100.00;100428.48;105358;1259;67149;-46
2023/06/05 03:16:32;;;;;;;1.50;0.10;;;;;;;8.97;100.00;100429.69;105454;1259;72766;-45
2023/06/05 03:19:01;;;;;;;0.70;0.20;;;;;;;8.99;100.00;100429.45;105353;1254;60453;-46
2023/06/05 03:21:29;;;;;;;0.60;0.20;;;;;;;9.03;100.00;100427.87;106025;1254;60510;-45
2023/06/05 03:23:56;;;;;;;0.30;0.10;;;;;;;9.09;100.00;100431.63;105663;1254;73398;-44
2023/06/05 03:26:25;;;;;;;0.30;0.20;;;;;;;9.17;100.00;100433.17;105418;1254;69131;-45
2023/06/05 03:28:53;;;;;;;0.40;0.20;;;;;;;9.26;100.00;100430.92;105592;1254;72808;-45
2023/06/05 03:31:21;;;;;;;0.30;0.20;;;;;;;9.34;100.00;100433.52;106009;1259;61931;-45
2023/06/05 03:33:48;;;;;;;0.60;0.20;;;;;;;9.43;100.00;100433.04;105364;1256;60617;-45
2023/06/05 03:36:17;;;;;;;0.30;0.20;;;;;;;9.53;100.00;100435.21;105447;1254;73626;-45
2023/06/05 03:38:45;;;;;;;5.00;0.30;;;;;;;9.64;100.00;100432.36;105387;1259;67516;-45
2023/06/05 03:41:12;;;;;;;0.50;0.20;;;;;;;9.74;100.00;100434.67;106297;1256;72115;-45
2023/06/05 03:43:40;;;;;;;1.10;0.20;;;;;;;9.85;100.00;100435.03;105286;1260;60500;-45
2023/06/05 03:46:07;;;;;;;0.30;0.20;;;;;;;9.95;100.00;100433.63;105292;1260;61358;-46
2023/06/05 03:48:35;;;;;;;0.60;0.20;;;;;;;10.02;100.00;100435.15;105068;1256;73859;-46
2023/06/05 03:51:02;;;;;;;0.40;0.20;;;;;;;10.10;100.00;100436.13;105165;1254;70369;-46
2023/06/05 03:53:30;;;;;;;0.40;0.20;;;;;;;10.18;100.00;100432.27;104983;1254;72047;-46
2023/06/05 03:55:59;;;;;;;0.40;0.20;;;;;;;10.28;100.00;100433.35;105415;1254;60650;-46
2023/06/05 03:58:32;;;;;;;1.00;0.30;;;;;;;10.40;100.00;100438.66;105105;1256;60537;-45
2023/06/05 04:00:59;;;;;;;3.40;0.40;;;;;;;10.52;100.00;100434.98;104949;1259;74320;-46
2023/06/05 04:03:28;;;;;;;2.40;0.30;;;;;;;10.66;100.00;100434.09;104967;1255;67652;-45
2023/06/05 04:05:56;;;;;;;0.80;0.40;;;;;;;10.80;100.00;100437.52;108225;1254;73857;-46
2023/06/05 04:08:24;;;;;;;1.70;0.30;;;;;;;10.94;100.00;100435.14;109085;1253;58591;-47
2023/06/05 04:10:52;;;;;;;0.30;0.10;;;;;;;11.09;100.00;100438.16;109035;1253;58830;-46
2023/06/05 04:13:21;;;;;;;0.30;0.20;;;;;;;11.24;100.00;100438.98;109114;1254;76563;-47
2023/06/05 04:15:49;;;;;;;0.20;0.10;;;;;;;11.39;100.00;100438.56;108877;1254;66315;-47
2023/06/05 04:18:17;;;;;;;0.40;0.20;;;;;;;11.54;100.00;100444.61;108842;1257;73612;-47
2023/06/05 04:20:46;;;;;;;0.40;0.10;;;;;;;11.68;100.00;100445.64;105140;1259;60396;-46
2023/06/05 04:23:14;;;;;;;0.80;0.10;;;;;;;11.81;100.00;100442.77;104780;1254;60502;-46
2023/06/05 04:25:45;;;;;;;1.00;0.20;;;;;;;11.95;100.00;100445.59;105322;1254;76313;-47
2023/06/05 04:28:15;;;;;;;2.00;0.10;;;;;;;12.09;100.00;100450.75;104739;1259;67903;-46
2023/06/05 04:30:44;;;;;;;0.80;0.20;;;;;;;12.22;100.00;100452.50;108849;1254;72489;-47
2023/06/05 04:33:12;;;;;;;0.70;0.20;;;;;;;12.34;100.00;100451.63;108943;1254;60386;-47
2023/06/05 04:35:39;;;;;;;5.80;0.40;;;;;;;12.46;100.00;100454.84;106215;1257;59187;-45
2023/06/05 04:38:08;;;;;;;0.80;0.20;;;;;;;12.60;100.00;100455.13;105246;1253;72954;-46
2023/06/05 04:40:35;;;;;;;1.00;0.10;;;;;;;12.72;100.00;100457.46;105129;1255;66344;-45
2023/06/05 04:43:04;;;;;;;0.20;0.10;;;;;;;12.85;100.00;100456.13;108959;1254;71040;-46
2023/06/05 04:45:31;;;;;;;1.10;0.10;;;;;;;12.98;100.00;100458.59;108827;1258;58633;-47
2023/06/05 04:47:58;;;;;;;0.30;0.10;;;;;;;13.11;100.00;100462.82;108891;1254;60798;-46
2023/06/05 04:50:27;;;;;;;0.20;0.10;;;;;;;13.24;100.00;100461.33;104983;1259;72467;-46
2023/06/05 04:53:21;;;;;;;0.30;0.10;;;;;;;13.41;100.00;100464.27;108864;1253;66262;-47
2023/06/05 04:55:49;;;;;;;1.20;0.10;;;;;;;13.55;100.00;100465.58;109013;1254;71158;-47
2023/06/05 04:58:19;;;;;;;0.20;0.10;;;;;;;13.69;100.00;100465.25;107829;1255;59332;-47
2023/06/05 05:00:49;;;;;;;0.20;0.10;;;;;;;13.83;100.00;100463.28;105282;1254;60543;-47
2023/06/05 05:03:17;;;;;;;0.80;0.10;;;;;;;13.96;100.00;100466.73;105372;1254;75017;-46
2023/06/05 05:05:45;;;;;;;0.40;0.20;;;;;;;14.11;100.00;100467.09;105858;1259;67617;-44
2023/06/05 05:08:12;;;;;;;0.20;0.00;;;;;;;14.24;100.00;100467.86;108984;1253;72442;-45
2023/06/05 05:10:40;;;;;;;0.50;0.10;;;;;;;14.38;100.00;100468.57;105340;1257;61127;-47
2023/06/05 05:13:08;;;;;;;0.60;0.10;;;;;;;14.54;100.00;100471.02;105522;1256;60549;-47
2023/06/05 05:15:35;;;;;;;0.40;0.10;;;;;;;14.68;100.00;100472.95;105572;1253;73126;-45
2023/06/05 05:18:03;;;;;;;0.20;0.10;;;;;;;14.82;100.00;100473.98;105511;1254;67759;-46
2023/06/05 05:20:32;;;;;;;0.10;0.10;;;;;;;14.97;100.00;100476.23;106063;1254;71593;-44
2023/06/05 05:23:00;;;;;;;1.20;0.10;;;;;;;15.12;100.00;100479.16;105916;1259;60674;-45
2023/06/05 05:25:28;;;;;;;0.50;0.00;;;;;;;15.27;100.00;100480.36;105763;1255;60380;-45
2023/06/05 05:27:56;;;;;;;2.00;0.10;;;;;;;15.41;100.00;100479.35;105454;1258;74193;-46
2023/06/05 05:30:23;;;;;;;0.20;0.10;;;;;;;15.56;100.00;100481.25;105620;1258;67034;-48
2023/06/05 05:32:52;;;;;;;0.20;0.10;;;;;;;15.69;100.00;100483.73;105461;1254;72281;-48
2023/06/05 05:35:20;;;;;;;0.30;0.10;;;;;;;15.82;100.00;100486.95;105447;1256;60839;-46
2023/06/05 05:40:34;;;;;;;0.20;0.10;;;;;;;16.13;100.00;100484.23;102458;1293;600435;-46
2023/06/05 05:43:01;;;;;;;0.60;0.10;;;;;;;16.25;100.00;100490.90;104686;1272;60579;-46
2023/06/05 05:45:29;;;;;;;0.20;0.20;;;;;;;16.40;100.00;100493.66;104662;1267;59312;-46
2023/06/05 05:47:57;;;;;;;1.70;0.10;;;;;;;16.53;100.00;100488.29;105034;1266;72501;-47
2023/06/05 05:50:24;;;;;;;0.40;0.20;;;;;;;16.67;100.00;100491.81;104694;1267;67742;-47
2023/06/05 05:52:53;;;;;;;0.10;0.10;;;;;;;16.78;100.00;100492.78;104564;1270;72119;-45
2023/06/05 05:55:20;;;;;;;9.80;0.30;;;;;;;16.88;100.00;100492.88;104348;1268;561358;-46
2023/06/05 05:57:48;;;;;;;1.40;0.10;;;;;;;16.99;100.00;100491.44;105118;1269;60073;-47
2023/06/05 06:00:16;;;;;;;0.70;0.20;;;;;;;17.13;100.00;100496.36;104744;1263;72217;-48
2023/06/05 06:02:43;;;;;;;1.10;0.10;;;;;;;17.24;100.00;100495.08;104844;1264;67915;-47
2023/06/05 06:05:12;;;;;;;1.90;0.30;;;;;;;17.34;100.00;100495.18;104456;1264;73683;-46
2023/06/05 06:07:41;;;;;;;0.20;0.10;;;;;;;17.44;100.00;100492.20;105515;1267;59826;-46
2023/06/05 06:10:11;;;;;;;0.30;0.20;;;;;;;17.53;100.00;100493.92;104602;1269;61088;-47
2023/06/05 06:12:40;;;;;;;1.10;0.10;;;;;;;17.62;100.00;100494.06;104395;1266;72954;-46
2023/06/05 06:15:09;;;;;;;3.10;0.10;;;;;;;17.72;100.00;100497.96;104515;1264;68250;-45
2023/06/05 06:17:37;;;;;;;0.20;0.10;;;;;;;17.81;100.00;100495.61;105204;1269;71355;-47
2023/06/05 06:20:06;;;;;;;1.80;0.10;;;;;;;17.88;100.00;100499.48;106112;1263;59729;-47
2023/06/05 06:22:34;;;;;;;0.30;0.10;;;;;;;17.96;100.00;100497.66;105275;1267;60618;-46
2023/06/05 06:25:02;;;;;;;0.60;0.10;;;;;;;18.03;100.00;100498.98;104745;1264;73517;-45
2023/06/05 06:27:30;;;;;;;0.20;0.10;;;;;;;18.09;100.00;100496.02;104786;1269;67511;-45
2023/06/05 06:30:02;;;;;;;0.80;0.20;;;;;;;18.16;100.00;100497.89;105850;1261;74977;-48
2023/06/05 06:32:30;;;;;;;0.50;0.10;;;;;;;18.26;100.00;100498.01;106087;1260;59730;-48
2023/06/05 06:34:57;;;;;;;0.40;0.20;;;;;;;18.35;100.00;100503.35;104689;1263;60079;-45
2023/06/05 06:37:25;;;;;;;1.00;0.10;;;;;;;18.41;100.00;100498.90;105265;1260;72227;-47
2023/06/05 06:39:52;;;;;;;0.10;0.10;;;;;;;18.49;100.00;100503.44;105125;1260;66546;-46
2023/06/05 06:42:20;;;;;;;0.30;0.10;;;;;;;18.57;100.00;100500.03;105303;1260;70646;-47
2023/06/05 06:45:00;;;;;;;0.70;0.10;;;;;;;18.64;100.00;100499.76;107215;1263;59673;-48
2023/06/05 06:47:28;;;;;;;0.90;0.10;;;;;;;18.70;100.00;100503.14;105317;1257;59618;-47
2023/06/05 06:49:56;;;;;;;1.40;0.30;;;;;;;18.77;100.00;100500.05;105236;1257;72278;-46
2023/06/05 06:52:24;;;;;;;1.70;0.10;;;;;;;18.83;100.00;100503.62;105219;1258;68235;-47
2023/06/05 06:54:52;;;;;;;0.60;0.20;;;;;;;18.90;100.00;100505.49;105332;1262;72160;-47
2023/06/05 06:57:19;;;;;;;0.30;0.10;;;;;;;18.98;100.00;100502.75;105147;1257;59590;-46
2023/06/05 06:59:47;;;;;;;2.40;0.20;;;;;;;19.07;100.00;100507.77;108929;1258;59371;-47
2023/06/05 07:02:17;;;;;;;1.20;0.20;;;;;;;19.14;100.00;100506.33;109123;1254;72999;-48
2023/06/05 07:04:44;;;;;;;1.50;0.30;;;;;;;19.19;100.00;100511.44;109034;1253;66722;-48
2023/06/05 07:07:13;;;;;;;0.80;0.10;;;;;;;19.25;100.00;100510.61;109116;1252;71310;-48
2023/06/05 07:09:42;;;;;;;0.20;0.10;;;;;;;19.30;100.00;100511.53;107736;1254;59731;-44
2023/06/05 07:12:10;;;;;;;0.30;0.10;;;;;;;19.35;100.00;100512.86;105319;1259;59785;-46
2023/06/05 07:14:38;;;;;;;0.10;0.10;;;;;;;19.38;100.00;100510.62;105352;1259;72250;-49
2023/06/05 07:17:05;;;;;;;1.90;0.10;;;;;;;19.41;100.00;100509.30;105319;1254;67607;-48
2023/06/05 07:19:33;;;;;;;1.60;0.10;;;;;;;19.49;100.00;100511.27;109002;1253;73023;-46
2023/06/05 07:22:01;;;;;;;2.60;0.20;;;;;;;19.61;100.00;100511.11;109043;1253;58795;-46
2023/06/05 07:24:28;;;;;;;1.00;0.10;;;;;;;19.72;100.00;100510.33;108996;1253;59775;-46
2023/06/05 07:26:58;;;;;;;3.20;0.20;;;;;;;19.82;100.00;100506.85;109059;1254;72176;-46
2023/06/05 07:29:26;;;;;;;0.30;0.10;;;;;;;19.90;100.00;100509.65;109018;1253;67788;-46
2023/06/05 07:31:54;;;;;;;0.20;0.10;;;;;;;19.97;100.00;100508.59;108840;1254;72576;-47
2023/06/05 07:34:22;;;;;;;0.10;0.00;;;;;;;20.03;100.00;100514.70;105591;1256;59682;-47
2023/06/05 07:36:51;;;;;;;0.20;0.10;;;;;;;20.09;100.00;100509.14;106052;1256;60519;-46
2023/06/05 07:39:19;;;;;;;0.50;0.10;;;;;;;20.17;100.00;100509.31;105602;1257;73011;-46
2023/06/05 07:41:47;;;;;;;0.30;0.20;;;;;;;20.25;100.00;100505.70;105368;1259;67620;-48
2023/06/05 07:44:16;;;;;;;0.90;0.10;;;;;;;20.35;100.00;100503.32;105372;1259;72390;-48
2023/06/05 07:46:45;;;;;;;0.30;0.10;;;;;;;20.45;100.00;100502.09;107028;1256;59781;-48
2023/06/05 07:49:12;;;;;;;0.10;0.10;;;;;;;20.52;100.00;100501.98;105527;1256;59551;-46
2023/06/05 07:51:40;;;;;;;0.30;0.10;;;;;;;20.58;100.00;100499.58;105456;1254;73337;-46
2023/06/05 07:54:08;;;;;;;0.20;0.10;;;;;;;20.61;100.00;100499.65;105425;1256;66700;-47
2023/06/05 07:56:36;;;;;;;0.10;0.10;;;;;;;20.65;100.00;100503.03;105278;1254;73739;-50
2023/06/05 07:59:04;;;;;;;0.10;0.10;;;;;;;20.72;100.00;100499.52;105334;1259;60475;-46
2023/06/05 08:01:36;;;;;;;0.20;0.20;;;;;;;20.80;100.00;100502.39;105405;1256;60392;-49
2023/06/05 08:04:04;;;;;;;0.10;0.10;;;;;;;20.85;100.00;100501.60;104873;1254;73561;-48
2023/06/05 08:06:32;;;;;;;0.20;0.10;;;;;;;20.89;100.00;100502.05;104817;1259;68364;-46
2023/06/05 08:08:59;;;;;;;1.10;0.10;;;;;;;20.91;100.00;100505.73;104937;1254;72468;-47
2023/06/05 08:11:28;;;;;;;1.60;0.10;;;;;;;20.94;100.00;100505.64;105243;1254;59791;-48
2023/06/05 08:13:55;;;;;;;0.20;0.10;;;;;;;20.95;100.00;100509.92;105596;1254;60774;-48
2023/06/05 08:16:22;;;;;;;1.40;0.10;;;;;;;20.94;100.00;100509.96;104710;1254;73232;-49
2023/06/05 08:18:50;;;;;;;0.10;0.10;;;;;;;20.95;100.00;100508.14;105122;1259;69516;-48
2023/06/05 08:21:18;;;;;;;0.30;0.10;;;;;;;20.95;100.00;100509.59;105473;1256;72606;-49
2023/06/05 08:23:45;;;;;;;1.90;0.40;;;;;;;20.93;100.00;100512.64;106284;1259;60686;-47
2023/06/05 08:26:13;;;;;;;0.60;0.20;;;;;;;20.95;100.00;100513.41;105385;1254;60134;-50
2023/06/05 08:28:40;;;;;;;0.30;0.20;;;;;;;21.03;100.00;100505.47;105461;1254;71082;-48
2023/06/05 08:31:09;;;;;;;2.60;0.20;;;;;;;21.12;100.00;100508.89;105511;1254;67452;-48
2023/06/05 08:33:37;;;;;;;0.30;0.20;;;;;;;21.20;100.00;100507.63;106150;1256;71841;-49
2023/06/05 08:36:05;;;;;;;0.20;0.20;;;;;;;21.21;100.00;100508.27;105343;1257;59698;-48
2023/06/05 08:38:33;;;;;;;0.30;0.10;;;;;;;21.17;100.00;100502.16;105252;1254;59659;-47
2023/06/05 08:41:02;;;;;;;0.20;0.10;;;;;;;21.12;100.00;100502.48;108434;1255;72669;-47
2023/06/05 08:43:29;;;;;;;0.70;0.20;;;;;;;21.08;100.00;100505.05;105346;1260;67517;-50
2023/06/05 08:45:57;;;;;;;2.80;0.40;;;;;;;21.02;100.00;100502.09;105393;1259;71475;-48
2023/06/05 08:48:25;;;;;;;0.30;0.30;;;;;;;20.96;100.00;100499.42;105396;1257;59682;-48
2023/06/05 08:50:54;;;;;;;0.70;0.20;;;;;;;20.96;100.00;100493.98;105386;1259;59526;-48
2023/06/05 08:53:22;;;;;;;0.20;0.10;;;;;;;20.99;100.00;100489.55;105326;1254;71843;-48
2023/06/05 08:55:52;;;;;;;1.80;0.10;;;;;;;21.05;100.00;100483.06;105412;1257;67633;-48
2023/06/05 08:58:19;;;;;;;2.40;0.20;;;;;;;21.13;100.00;100483.48;105129;1259;70693;-50
2023/06/05 09:00:48;;;;;;;0.20;0.20;;;;;;;21.19;100.00;100480.85;105169;1259;60169;-49
2023/06/05 09:03:18;;;;;;;2.40;0.20;;;;;;;21.30;100.00;100477.20;105069;1254;60069;-48
2023/06/05 09:05:47;;;;;;;0.30;0.20;;;;;;;21.43;100.00;100471.17;104680;1256;72828;-49
2023/06/05 09:08:18;;;;;;;0.10;0.10;;;;;;;21.56;100.00;100479.28;105276;1254;68840;-49
2023/06/05 09:10:45;;;;;;;0.20;0.10;;;;;;;21.67;100.00;100477.45;104883;1257;72621;-50
2023/06/05 09:13:12;;;;;;;0.30;0.10;;;;;;;21.72;100.00;100472.77;104638;1258;59657;-49
2023/06/05 09:15:40;;;;;;;0.20;0.20;;;;;;;21.77;100.00;100467.79;104806;1255;60417;-46
2023/06/05 09:18:12;;;;;;;0.30;0.20;;;;;;;21.86;100.00;100463.90;104765;1254;73490;-50
2023/06/05 09:20:45;;;;;;;0.20;0.20;;;;;;;21.96;100.00;100463.48;104875;1257;67003;-47
2023/06/05 09:23:27;;;;;;;0.40;0.10;;;;;;;22.07;100.00;100456.69;105733;1256;74523;-51
2023/06/05 09:25:58;;;;;;;0.60;0.20;;;;;;;22.22;100.00;100453.77;109050;1254;59844;-49
2023/06/05 09:28:26;;;;;;;0.20;0.20;;;;;;;22.36;100.00;100457.87;108872;1254;59958;-49
2023/06/05 09:30:58;;;;;;;1.20;0.10;;;;;;;22.45;100.00;100459.10;108970;1254;72208;-50
2023/06/05 09:33:27;;;;;;;0.20;0.20;;;;;;;22.51;100.00;100454.53;109022;1254;69026;-48
2023/06/05 09:36:21;;;;;;;1.30;0.20;;;;;;;22.57;100.00;100452.54;109076;1254;73769;-48
2023/06/05 09:38:50;;;;;;;0.20;0.20;;;;;;;22.63;100.00;100445.83;108934;1256;59409;-48
2023/06/05 09:41:18;;;;;;;1.50;0.20;;;;;;;22.64;100.00;100443.11;108833;1257;58608;-47
2023/06/05 09:43:46;;;;;;;0.90;0.20;;;;;;;22.63;100.00;100437.73;108993;1254;71794;-47
2023/06/05 09:46:17;;;;;;;0.20;0.20;;;;;;;22.62;100.00;100436.56;108938;1256;66018;-47
2023/06/05 09:48:52;;;;;;;0.20;0.20;;;;;;;22.60;100.00;100435.97;107627;1254;72444;-48
2023/06/05 09:51:20;;;;;;;0.20;0.20;;;;;;;22.62;100.00;100434.97;108834;1254;60415;-50
2023/06/05 09:53:48;;;;;;;2.00;0.20;;;;;;;22.64;100.00;100432.54;108961;1256;59814;-50
2023/06/05 09:56:17;;;;;;;0.30;0.20;;;;;;;22.68;100.00;100425.44;108437;1256;73959;-48
2023/06/05 09:58:45;;;;;;;0.20;0.20;;;;;;;22.68;100.00;100422.35;105388;1257;67608;-51
2023/06/05 10:01:16;;;;;;;0.20;0.20;;;;;;;22.63;100.00;100421.10;105222;1259;73138;-47
2023/06/05 10:03:49;;;;;;;0.60;0.20;;;;;;;22.54;100.00;100416.56;109051;1254;58588;-49
2023/06/05 10:06:21;;;;;;;0.70;0.20;;;;;;;22.47;100.00;100412.45;108950;1254;58982;-48
2023/06/05 10:08:52;;;;;;;0.10;0.10;;;;;;;22.46;100.00;100411.14;107791;1257;73059;-50
2023/06/05 10:11:23;;;;;;;2.40;0.10;;;;;;;22.46;100.00;100412.54;108902;1254;68125;-52
2023/06/05 10:13:50;;;;;;;0.70;0.20;;;;;;;22.45;100.00;100410.10;108917;1259;73591;-47
2023/06/05 10:16:18;;;;;;;0.50;0.20;;;;;;;22.44;100.00;100406.02;108914;1254;60277;-49
2023/06/05 10:18:55;;;;;;;0.10;0.10;;;;;;;22.46;100.00;100407.06;105773;1257;61508;-50
2023/06/05 10:21:23;;;;;;;1.50;0.10;;;;;;;22.50;100.00;100400.48;108054;1257;73655;-49
2023/06/05 10:24:13;;;;;;;0.30;0.20;;;;;;;22.55;100.00;100402.83;105214;1254;64899;-51
2023/06/05 10:27:06;;;;;;;0.60;0.20;;;;;;;22.62;100.00;100403.59;105373;1254;74392;-51
2023/06/05 10:29:43;;;;;;;0.20;0.20;;;;;;;22.70;100.00;100402.02;105269;1254;60415;-51
2023/06/05 10:32:36;;;;;;;0.20;0.20;;;;;;;22.79;100.00;100400.55;105223;1254;60489;-48
2023/06/05 10:35:31;;;;;;;0.30;0.20;;;;;;;22.85;100.00;100395.07;105379;1254;73651;-51
2023/06/05 10:38:16;;;;;;;0.20;0.20;;;;;;;22.95;100.00;100393.61;105328;1258;69358;-50
2023/06/05 10:40:45;;;;;;;1.00;0.20;;;;;;;23.07;100.00;100396.79;105186;1256;72724;-51
2023/06/05 10:43:26;;;;;;;0.30;0.20;;;;;;;23.15;100.00;100393.80;105467;1256;60467;-51
2023/06/05 10:45:54;;;;;;;0.20;0.20;;;;;;;23.23;100.00;100392.89;105199;1259;61022;-48
2023/06/05 10:49:19;;;;;;;0.70;0.20;;;;;;;23.32;100.00;100393.13;105240;1254;74315;-49
2023/06/05 10:51:50;;;;;;;0.50;0.20;;;;;;;23.41;100.00;100388.09;104786;1265;68280;-48
2023/06/05 10:54:23;;;;;;;0.90;0.20;;;;;;;23.48;100.00;100382.22;105110;1259;72071;-48
2023/06/05 10:57:05;;;;;;;0.20;0.20;;;;;;;23.49;100.00;100381.32;105323;1254;60406;-49
2023/06/05 11:00:10;;;;;;;0.20;0.10;;;;;;;23.43;100.00;100381.77;106300;1258;60411;-49
2023/06/05 11:02:46;;;;;;;0.20;0.20;;;;;;;23.31;100.00;100382.59;105051;1259;75981;-50
2023/06/05 11:05:14;;;;;;;0.20;0.10;;;;;;;23.23;100.00;100381.03;104740;1259;68657;-50
2023/06/05 11:07:45;;;;;;;0.30;0.20;;;;;;;23.15;100.00;100374.91;107174;1259;74857;-50
2023/06/05 11:10:21;;;;;;;0.20;0.20;;;;;;;23.09;100.00;100372.59;105244;1256;61071;-49
2023/06/05 11:12:52;;;;;;;0.40;0.20;;;;;;;23.05;100.00;100370.61;105287;1254;62357;-48
2023/06/05 11:15:22;;;;;;;0.20;0.20;;;;;;;23.00;100.00;100370.60;105171;1254;75010;-51
2023/06/05 11:17:50;;;;;;;0.20;0.20;;;;;;;22.98;100.00;100364.73;105190;1254;68371;-50
2023/06/05 11:20:20;;;;;;;0.90;0.20;;;;;;;22.99;100.00;100361.57;104516;1257;72989;-49
2023/06/05 11:22:57;;;;;;;0.20;0.20;;;;;;;22.99;100.00;100357.67;104498;1257;61167;-49
2023/06/05 11:25:28;;;;;;;1.10;0.10;;;;;;;22.98;100.00;100350.70;105115;1259;62225;-50